createdAt,value
2018-11-26T00:02:02.707Z,86.70
2018-11-26T00:04:31.982Z,86.80
2018-11-26T00:07:01.638Z,86.30
2018-11-26T00:09:30.731Z,86.60
2018-11-26T00:12:00.053Z,86.90
2018-11-26T00:14:29.167Z,87.20
2018-11-26T00:16:59.201Z,87.40
2018-11-26T00:19:28.273Z,87.50
2018-11-26T00:21:57.339Z,87.60
2018-11-26T00:24:26.413Z,87.50
2018-11-26T00:26:55.497Z,86.90
2018-11-26T00:29:24.666Z,86.70
2018-11-26T00:31:53.800Z,87.40
2018-11-26T00:34:22.899Z,88.10
2018-11-26T00:36:51.999Z,89.30
2018-11-26T00:39:21.074Z,90.00
2018-11-26T00:41:50.920Z,90.60
2018-11-26T00:44:20.033Z,90.40
2018-11-26T00:46:49.165Z,91.30
2018-11-26T00:49:18.350Z,91.00
2018-11-26T00:51:47.463Z,91.80
2018-11-26T00:54:16.581Z,91.80
2018-11-26T00:56:46.897Z,91.60
2018-11-26T00:59:16.010Z,91.00
2018-11-26T01:01:45.330Z,90.90
2018-11-26T01:04:14.487Z,90.90
2018-11-26T01:06:43.738Z,90.80
2018-11-26T01:09:12.898Z,91.00
2018-11-26T01:11:42.034Z,91.10
2018-11-26T01:14:11.826Z,92.10
2018-11-26T01:16:40.923Z,92.70
2018-11-26T01:19:10.024Z,92.80
2018-11-26T01:21:39.893Z,92.40
2018-11-26T01:24:09.202Z,91.60
2018-11-26T01:26:39.445Z,91.50
2018-11-26T01:29:08.553Z,91.20
2018-11-26T01:31:38.428Z,90.70
2018-11-26T01:34:07.729Z,91.00
2018-11-26T01:36:36.922Z,90.90
2018-11-26T01:39:08.431Z,90.60
2018-11-26T01:41:37.666Z,91.50
2018-11-26T01:44:07.069Z,91.80
2018-11-26T01:46:36.759Z,92.00
2018-11-26T01:49:06.240Z,91.20
2018-11-26T01:51:35.357Z,91.30
2018-11-26T01:54:04.497Z,91.30
2018-11-26T01:56:33.569Z,91.30
2018-11-26T01:59:02.669Z,90.30
2018-11-26T02:01:31.990Z,90.00
2018-11-26T02:04:01.598Z,89.60
2018-11-26T02:06:32.347Z,89.90
2018-11-26T02:09:01.507Z,89.70
2018-11-26T02:11:31.300Z,89.20
2018-11-26T02:14:00.385Z,88.90
2018-11-26T02:16:29.572Z,89.10
2018-11-26T02:18:58.769Z,89.00
2018-11-26T02:21:28.041Z,89.40
2018-11-26T02:23:57.306Z,89.20
2018-11-26T02:26:26.398Z,88.60
2018-11-26T02:28:55.509Z,89.70
2018-11-26T02:31:24.592Z,89.20
2018-11-26T02:33:54.531Z,89.40
2018-11-26T02:36:24.315Z,89.20
2018-11-26T02:38:53.574Z,88.70
2018-11-26T02:41:22.782Z,89.30
2018-11-26T02:43:51.988Z,88.60
2018-11-26T02:46:21.906Z,89.50
2018-11-26T02:48:51.039Z,89.40
2018-11-26T02:51:20.338Z,89.30
2018-11-26T02:53:49.493Z,90.10
2018-11-26T02:56:18.821Z,89.80
2018-11-26T02:58:47.893Z,89.90
2018-11-26T03:01:17.025Z,89.20
2018-11-26T03:03:46.191Z,88.60
2018-11-26T03:06:15.344Z,89.20
2018-11-26T03:08:44.501Z,91.60
2018-11-26T03:11:14.422Z,90.10
2018-11-26T03:13:44.330Z,89.50
2018-11-26T03:16:13.627Z,88.70
2018-11-26T03:18:42.756Z,88.30
2018-11-26T03:21:11.939Z,88.70
2018-11-26T03:23:41.754Z,88.70
2018-11-26T03:26:10.859Z,89.10
2018-11-26T03:28:39.931Z,88.40
2018-11-26T03:31:09.125Z,88.50
2018-11-26T03:33:38.216Z,88.30
2018-11-26T03:36:07.843Z,87.80
2018-11-26T03:38:51.016Z,87.90
2018-11-26T03:41:20.575Z,87.70
2018-11-26T03:43:49.685Z,87.60
2018-11-26T03:46:18.881Z,87.60
2018-11-26T03:48:47.983Z,88.20
2018-11-26T03:51:17.259Z,88.30
2018-11-26T03:53:46.355Z,89.10
2018-11-26T03:56:15.462Z,88.60
2018-11-26T03:58:44.571Z,88.40
2018-11-26T04:01:13.678Z,89.30
2018-11-26T04:03:43.584Z,90.40
2018-11-26T04:06:12.802Z,90.40
2018-11-26T04:08:43.782Z,91.00
2018-11-26T04:11:12.875Z,90.60
2018-11-26T04:13:41.993Z,90.50
2018-11-26T04:16:11.090Z,90.80
2018-11-26T04:18:40.166Z,91.10
2018-11-26T04:21:09.832Z,91.80
2018-11-26T04:23:39.049Z,92.60
2018-11-26T04:26:08.155Z,91.80
2018-11-26T04:28:37.458Z,93.90
2018-11-26T04:31:06.617Z,92.70
2018-11-26T04:33:35.799Z,91.90
2018-11-26T04:36:05.495Z,92.10
2018-11-26T04:38:34.650Z,93.10
2018-11-26T04:41:03.771Z,93.00
2018-11-26T04:43:33.091Z,92.20
2018-11-26T04:46:02.230Z,93.20
2018-11-26T04:48:31.344Z,92.10
2018-11-26T04:51:00.458Z,93.40
2018-11-26T04:53:29.550Z,92.70
2018-11-26T04:55:58.600Z,91.70
2018-11-26T04:58:27.709Z,91.30
2018-11-26T05:00:56.966Z,90.80
2018-11-26T05:03:26.231Z,89.50
2018-11-26T05:05:55.328Z,89.10
2018-11-26T05:08:24.473Z,88.90
2018-11-26T05:10:53.612Z,89.00
2018-11-26T05:13:22.703Z,89.00
2018-11-26T05:15:52.663Z,87.70
2018-11-26T05:18:21.862Z,87.80
2018-11-26T05:20:51.088Z,88.30
2018-11-26T05:23:20.266Z,87.80
2018-11-26T05:25:49.366Z,87.10
2018-11-26T05:28:18.510Z,89.40
2018-11-26T05:30:47.633Z,89.00
2018-11-26T05:33:17.595Z,88.40
2018-11-26T05:35:47.301Z,89.90
2018-11-26T05:38:16.383Z,90.00
2018-11-26T05:40:45.662Z,90.10
2018-11-26T05:43:14.878Z,88.30
2018-11-26T05:45:44.126Z,88.70
2018-11-26T05:48:13.274Z,88.70
2018-11-26T05:50:43.059Z,88.50
2018-11-26T05:53:12.134Z,89.30
2018-11-26T05:55:41.262Z,88.10
2018-11-26T05:58:10.473Z,88.90
2018-11-26T06:00:40.133Z,88.80
2018-11-26T06:03:09.228Z,88.40
2018-11-26T06:05:38.293Z,88.40
2018-11-26T06:08:07.584Z,87.60
2018-11-26T06:10:36.661Z,88.30
2018-11-26T06:13:06.905Z,88.10
2018-11-26T06:15:36.307Z,88.00
2018-11-26T06:18:05.715Z,88.40
2018-11-26T06:20:34.812Z,88.20
2018-11-26T06:23:04.082Z,87.90
2018-11-26T06:25:33.188Z,87.70
2018-11-26T06:28:02.289Z,88.10
2018-11-26T06:30:31.614Z,87.90
2018-11-26T06:33:01.337Z,87.10
2018-11-26T06:35:30.426Z,87.00
2018-11-26T06:37:59.769Z,87.20
2018-11-26T06:40:28.914Z,87.50
2018-11-26T06:42:58.010Z,87.40
2018-11-26T06:45:27.326Z,88.20
2018-11-26T06:47:56.481Z,87.00
2018-11-26T06:50:25.761Z,87.20
2018-11-26T06:52:55.609Z,87.20
2018-11-26T06:55:24.853Z,86.90
2018-11-26T06:57:53.999Z,86.90
2018-11-26T07:00:23.105Z,86.90
2018-11-26T07:02:52.243Z,86.50
2018-11-26T07:05:22.295Z,86.80
2018-11-26T07:07:51.392Z,85.80
2018-11-26T07:10:21.176Z,85.70
2018-11-26T07:12:50.287Z,86.20
2018-11-26T07:15:21.023Z,85.80
2018-11-26T07:17:50.518Z,86.00
2018-11-26T07:20:20.850Z,86.20
2018-11-26T07:22:50.284Z,85.70
2018-11-26T07:25:20.759Z,85.70
2018-11-26T07:27:53.258Z,85.90
2018-11-26T07:30:23.615Z,85.60
2018-11-26T07:32:53.662Z,87.00
2018-11-26T07:35:22.962Z,87.40
2018-11-26T07:37:52.805Z,87.20
2018-11-26T07:40:23.027Z,86.60
2018-11-26T07:42:59.953Z,86.80
2018-11-26T07:45:29.718Z,87.10
2018-11-26T07:47:58.816Z,86.80
2018-11-26T07:50:27.862Z,87.40
2018-11-26T07:52:57.035Z,87.40
2018-11-26T07:55:26.135Z,87.50
2018-11-26T07:57:55.414Z,87.90
2018-11-26T08:00:24.651Z,88.80
2018-11-26T08:02:53.779Z,88.90
2018-11-26T08:05:23.692Z,88.70
2018-11-26T08:07:52.924Z,88.90
2018-11-26T08:10:24.303Z,89.00
2018-11-26T08:12:54.534Z,89.90
2018-11-26T08:15:24.960Z,89.50
2018-11-26T08:17:55.478Z,89.30
2018-11-26T08:20:24.754Z,88.60
2018-11-26T08:22:54.914Z,88.70
2018-11-26T08:25:24.526Z,88.70
2018-11-26T08:27:53.781Z,87.40
2018-11-26T08:30:24.451Z,88.80
2018-11-26T08:32:58.875Z,88.90
2018-11-26T08:35:29.229Z,89.20
2018-11-26T09:55:44.104Z,85.50
2018-11-26T09:58:13.231Z,84.60
2018-11-26T10:00:42.357Z,85.30
2018-11-26T10:03:11.664Z,85.30
2018-11-26T10:05:40.837Z,86.00
2018-11-26T10:08:10.086Z,83.50
2018-11-26T10:10:39.337Z,83.30
2018-11-26T10:13:08.576Z,83.70
2018-11-26T10:15:37.815Z,83.30
2018-11-26T10:18:06.946Z,82.50
2018-11-26T10:20:36.444Z,84.20
2018-11-26T10:23:06.483Z,83.10
2018-11-26T10:25:35.670Z,84.10
2018-11-26T10:28:05.098Z,82.60
2018-11-26T10:30:34.662Z,82.40
2018-11-26T10:33:03.839Z,81.60
2018-11-26T10:35:33.107Z,81.80
2018-11-26T10:38:02.366Z,83.10
2018-11-26T10:40:31.541Z,81.90
2018-11-26T10:43:00.711Z,83.10
2018-11-26T10:45:30.081Z,83.60
2018-11-26T10:47:59.237Z,83.30
2018-11-26T10:50:29.099Z,82.50
2018-11-26T10:52:59.470Z,84.20
2018-11-26T10:55:33.988Z,85.00
2018-11-26T10:58:03.270Z,84.00
2018-11-26T11:00:39.486Z,84.30
2018-11-26T11:03:08.631Z,84.90
2018-11-26T11:05:40.764Z,85.80
2018-11-26T11:08:10.055Z,84.80
2018-11-26T11:10:39.450Z,85.90
2018-11-26T11:13:10.669Z,86.00
2018-11-26T11:15:39.964Z,86.30
2018-11-26T11:18:09.556Z,86.90
2018-11-26T11:20:38.890Z,86.60
2018-11-26T11:23:08.885Z,86.90
2018-11-26T11:25:38.982Z,87.90
2018-11-26T11:28:08.190Z,87.90
2018-11-26T11:30:37.406Z,87.40
2018-11-26T11:35:35.653Z,88.70
2018-11-26T11:38:05.471Z,90.10
2018-11-26T11:40:34.676Z,89.40
2018-11-26T11:43:03.959Z,88.40
2018-11-26T11:45:34.100Z,89.70
2018-11-26T11:48:03.547Z,89.40
2018-11-26T11:50:32.718Z,91.30
2018-11-26T11:53:01.893Z,91.50
2018-11-26T11:55:31.092Z,90.40
2018-11-26T11:58:00.202Z,90.00
2018-11-26T12:00:32.937Z,91.00
2018-11-26T12:03:03.446Z,90.60
2018-11-26T12:05:32.840Z,90.00
2018-11-26T12:08:02.279Z,88.80
2018-11-26T12:10:31.615Z,87.70
2018-11-26T12:13:00.790Z,89.20
2018-11-26T12:15:30.057Z,90.10
2018-11-26T12:17:59.191Z,89.60
2018-11-26T12:20:28.730Z,91.20
2018-11-26T12:22:57.868Z,89.30
2018-11-26T12:25:28.277Z,89.80
2018-11-26T12:27:57.424Z,91.30
2018-11-26T12:30:28.108Z,91.80
2018-11-26T12:32:57.628Z,91.20
2018-11-26T12:35:26.829Z,88.90
2018-11-26T12:37:56.092Z,88.40
2018-11-26T12:40:26.552Z,87.70
2018-11-26T12:42:56.783Z,89.70
2018-11-26T12:45:27.559Z,90.80
2018-11-26T12:47:57.086Z,89.60
2018-11-26T12:50:26.905Z,88.10
2018-11-26T12:52:55.934Z,88.00
2018-11-26T12:55:25.829Z,89.00
2018-11-26T12:57:55.891Z,88.90
2018-11-26T13:00:26.232Z,87.80
2018-11-26T13:02:57.660Z,87.40
2018-11-26T13:05:27.517Z,87.70
2018-11-26T13:07:56.855Z,87.50
2018-11-26T13:10:27.304Z,88.50
2018-11-26T13:12:56.473Z,89.60
2018-11-26T13:15:29.166Z,90.00
2018-11-26T13:18:00.955Z,89.00
2018-11-26T13:20:32.294Z,88.30
2018-11-26T13:23:03.043Z,87.90
2018-11-26T13:25:34.208Z,88.10
2018-11-26T13:28:04.418Z,89.30
2018-11-26T13:30:36.176Z,88.80
2018-11-26T13:33:11.813Z,89.00
2018-11-26T13:35:40.633Z,88.90
2018-11-26T13:38:10.193Z,89.70
2018-11-26T13:40:39.366Z,90.10
2018-11-26T13:43:10.396Z,89.30
2018-11-26T13:45:42.047Z,89.00
2018-11-26T13:48:12.568Z,89.00
2018-11-26T13:50:57.940Z,90.10
2018-11-26T13:53:27.167Z,89.80
2018-11-26T13:55:56.599Z,89.30
2018-11-26T13:58:25.911Z,89.50
2018-11-26T14:00:55.925Z,90.00
2018-11-26T14:03:25.103Z,90.70
2018-11-26T14:05:54.331Z,91.70
2018-11-26T14:08:23.577Z,90.90
2018-11-26T14:10:52.949Z,91.70
2018-11-26T14:13:22.076Z,90.90
2018-11-26T14:15:51.408Z,90.50
2018-11-26T14:18:20.450Z,91.90
2018-11-26T14:20:49.650Z,90.60
2018-11-26T14:23:21.005Z,91.20
2018-11-26T14:25:50.178Z,90.60
2018-11-26T14:28:19.477Z,91.90
2018-11-26T14:30:48.720Z,91.30
2018-11-26T14:33:17.976Z,91.30
2018-11-26T14:35:47.201Z,91.60
2018-11-26T14:38:16.492Z,91.20
2018-11-26T14:40:47.340Z,91.50
2018-11-26T14:43:16.538Z,89.90
2018-11-26T14:45:45.735Z,89.70
2018-11-26T14:48:14.984Z,89.90
2018-11-26T14:50:44.211Z,90.30
2018-11-26T14:53:16.524Z,90.70
2018-11-26T14:55:45.846Z,91.20
2018-11-26T14:58:15.046Z,90.40
2018-11-26T15:00:44.238Z,91.20
2018-11-26T15:03:13.392Z,91.60
2018-11-26T15:05:43.257Z,91.90
2018-11-26T15:08:12.608Z,92.70
2018-11-26T15:10:41.720Z,92.50
2018-11-26T15:13:11.656Z,92.10
2018-11-26T15:15:41.598Z,90.70
2018-11-26T15:18:10.765Z,92.20
2018-11-26T15:20:39.925Z,91.90
2018-11-26T15:23:09.128Z,92.30
2018-11-26T15:25:45.150Z,91.40
2018-11-26T15:28:14.827Z,90.80
2018-11-26T15:30:44.248Z,91.90
2018-11-26T15:33:14.068Z,92.30
2018-11-26T15:35:43.207Z,93.00
2018-11-26T15:38:13.039Z,92.50
2018-11-26T15:40:42.857Z,91.80
2018-11-26T15:43:12.107Z,93.10
2018-11-26T15:45:41.274Z,92.90
2018-11-26T15:48:11.832Z,92.40
2018-11-26T15:50:41.722Z,92.80
2018-11-26T15:53:11.118Z,92.10
2018-11-26T15:55:40.273Z,92.50
2018-11-26T15:58:10.461Z,92.90
2018-11-26T16:00:39.785Z,92.70
2018-11-26T16:03:09.076Z,92.40
2018-11-26T16:05:40.228Z,93.30
2018-11-26T16:08:10.645Z,93.60
2018-11-26T16:10:39.518Z,95.10
2018-11-26T16:13:09.563Z,95.90
2018-11-26T16:15:40.289Z,95.50
2018-11-26T16:18:11.447Z,94.80
2018-11-26T16:20:40.292Z,95.60
2018-11-26T16:23:10.061Z,95.10
2018-11-26T16:25:41.293Z,94.50
2018-11-26T16:28:11.429Z,94.30
2018-11-26T16:30:40.302Z,94.60
2018-11-26T16:33:09.830Z,94.20
2018-11-26T16:35:38.674Z,94.60
2018-11-26T16:38:08.546Z,94.00
2018-11-26T16:40:37.395Z,93.40
2018-11-26T16:43:06.646Z,93.80
2018-11-26T16:45:35.468Z,94.00
2018-11-26T16:48:04.330Z,94.10
2018-11-26T16:50:34.407Z,93.60
2018-11-26T16:53:03.262Z,93.60
2018-11-26T16:55:32.087Z,93.50
2018-11-26T16:58:00.916Z,94.20
2018-11-26T17:00:30.635Z,94.20
2018-11-26T17:03:00.585Z,93.90
2018-11-26T17:05:37.749Z,93.60
2018-11-26T17:08:10.767Z,94.80
2018-11-26T17:10:39.734Z,93.80
2018-11-26T17:13:10.002Z,93.90
2018-11-26T17:15:38.845Z,93.10
2018-11-26T17:18:07.979Z,94.00
2018-11-26T17:20:37.566Z,92.70
2018-11-26T17:23:06.985Z,92.10
2018-11-26T17:25:35.806Z,91.90
2018-11-26T17:28:04.662Z,91.80
2018-11-26T17:30:33.486Z,92.10
2018-11-26T17:33:03.582Z,91.70
2018-11-26T17:35:32.570Z,92.20
2018-11-26T17:38:01.399Z,92.30
2018-11-26T17:40:30.242Z,92.50
2018-11-26T17:42:59.098Z,92.30
2018-11-26T17:45:27.938Z,92.80
2018-11-26T17:47:58.794Z,93.00
2018-11-26T17:50:35.006Z,93.00
2018-11-26T17:53:04.158Z,93.40
2018-11-26T17:55:32.977Z,93.70
2018-11-26T17:58:01.823Z,94.60
2018-11-26T18:00:32.962Z,95.10
2018-11-26T18:03:02.041Z,95.00
2018-11-26T18:05:31.384Z,94.30
2018-11-26T18:08:04.285Z,94.50
2018-11-26T18:10:33.132Z,93.60
2018-11-26T18:13:02.021Z,93.50
2018-11-26T18:15:30.847Z,92.90
2018-11-26T18:17:59.718Z,92.90
2018-11-26T18:20:28.540Z,93.40
2018-11-26T18:22:57.396Z,93.80
2018-11-26T18:25:26.214Z,94.20
2018-11-26T18:28:11.111Z,94.70
2018-11-26T18:30:43.262Z,93.60
2018-11-26T18:33:12.122Z,93.90
2018-11-26T18:35:41.566Z,94.30
2018-11-26T18:38:10.398Z,94.00
2018-11-26T18:40:40.449Z,93.40
2018-11-26T18:43:09.594Z,93.80
2018-11-26T18:45:39.472Z,94.30
2018-11-26T18:48:09.418Z,93.10
2018-11-26T18:50:38.499Z,93.30
2018-11-26T18:53:08.076Z,93.50
2018-11-26T18:55:38.052Z,93.10
2018-11-26T18:58:07.139Z,92.30
2018-11-26T19:00:43.186Z,93.20
2018-11-26T19:03:12.071Z,93.60
2018-11-26T19:05:40.873Z,93.30
2018-11-26T19:08:09.698Z,92.90
2018-11-26T19:10:38.518Z,92.80
2018-11-26T19:14:13.894Z,93.60
2018-11-26T19:16:45.946Z,92.90
2018-11-26T19:19:14.784Z,93.70
2018-11-26T19:21:43.687Z,93.80
2018-11-26T19:24:12.575Z,94.00
2018-11-26T19:26:41.390Z,94.90
2018-11-26T19:29:10.225Z,95.30
2018-11-26T19:31:39.026Z,95.10
2018-11-26T19:34:07.875Z,96.40
2018-11-26T19:36:36.723Z,95.50
2018-11-26T19:39:08.360Z,95.20
2018-11-26T19:41:37.463Z,95.50
2018-11-26T19:44:06.390Z,95.60
2018-11-26T19:46:35.169Z,95.90
2018-11-26T19:49:04.011Z,95.20
2018-11-26T19:51:32.847Z,96.20
2018-11-26T19:54:01.663Z,96.40
2018-11-26T19:56:30.501Z,96.60
2018-11-26T19:59:01.266Z,95.80
2018-11-26T20:01:30.137Z,95.00
2018-11-26T20:04:14.926Z,93.40
2018-11-26T20:06:43.743Z,93.10
2018-11-26T20:09:12.577Z,93.50
2018-11-26T20:11:41.402Z,93.20
2018-11-26T20:14:10.488Z,92.80
2018-11-26T20:16:43.583Z,92.90
2018-11-26T20:19:12.895Z,92.70
2018-11-26T20:21:41.994Z,91.80
2018-11-26T20:24:11.816Z,91.50
2018-11-26T20:26:41.048Z,91.00
2018-11-26T20:29:10.616Z,91.10
2018-11-26T20:31:39.932Z,89.80
2018-11-26T20:34:09.090Z,88.70
2018-11-26T20:36:41.517Z,88.00
2018-11-26T20:39:10.663Z,87.40
2018-11-26T20:41:40.076Z,88.00
2018-11-26T20:44:09.556Z,87.80
2018-11-26T20:46:39.559Z,87.30
2018-11-26T20:49:10.376Z,87.40
2018-11-26T20:51:39.738Z,87.70
2018-11-26T20:54:09.866Z,88.30
2018-11-26T20:56:39.006Z,88.50
2018-11-26T20:59:08.596Z,88.60
2018-11-26T21:01:37.791Z,88.70
2018-11-26T21:04:08.620Z,88.90
2018-11-26T21:06:38.407Z,89.30
2018-11-26T21:09:08.924Z,90.60
2018-11-26T21:11:39.783Z,90.90
2018-11-26T21:14:09.643Z,89.90
2018-11-26T21:16:38.794Z,89.10
2018-11-26T21:19:08.106Z,89.80
2018-11-26T21:21:37.664Z,89.10
2018-11-26T21:24:07.308Z,90.10
2018-11-26T21:26:36.457Z,89.60
2018-11-26T21:29:06.519Z,90.70
2018-11-26T21:31:35.784Z,91.50
2018-11-26T21:34:05.357Z,91.70
2018-11-26T21:36:35.920Z,91.00
2018-11-26T21:39:08.475Z,91.40
2018-11-26T21:41:38.483Z,92.50
2018-11-26T21:44:09.175Z,92.30
2018-11-26T21:46:38.281Z,92.20
2018-11-26T21:49:07.402Z,92.30
2018-11-26T21:51:37.077Z,92.30
2018-11-26T21:54:06.596Z,91.70
2018-11-26T21:56:36.286Z,91.90
2018-11-26T21:59:05.760Z,91.30
2018-11-26T22:01:35.003Z,90.80
2018-11-26T22:04:04.130Z,89.80
2018-11-26T22:06:33.914Z,90.10
2018-11-26T22:09:03.947Z,89.60
2018-11-26T22:11:33.082Z,89.30
2018-11-26T22:14:02.225Z,88.30
2018-11-26T22:16:31.443Z,87.20
2018-11-26T22:19:00.694Z,86.90
2018-11-26T22:21:29.942Z,87.40
2018-11-26T22:23:59.526Z,86.40
2018-11-26T22:26:30.520Z,86.00
2018-11-26T22:28:59.611Z,85.80
2018-11-26T22:33:57.598Z,85.00
2018-11-26T22:36:26.824Z,86.00
2018-11-26T22:38:56.156Z,85.70
2018-11-26T22:41:25.241Z,85.10
2018-11-26T22:43:54.849Z,85.20
2018-11-26T22:46:24.029Z,84.60
2018-11-26T22:48:54.106Z,84.60
2018-11-26T22:51:23.230Z,84.90
2018-11-26T22:53:53.036Z,84.90
2018-11-26T22:56:23.380Z,85.10
2018-11-26T22:58:52.411Z,85.40
2018-11-26T23:01:21.559Z,85.30
2018-11-26T23:03:50.645Z,85.50
2018-11-26T23:06:19.827Z,85.40
2018-11-26T23:08:48.918Z,85.40
2018-11-26T23:11:18.307Z,85.20
2018-11-26T23:13:47.410Z,85.30
2018-11-26T23:16:17.185Z,86.10
2018-11-26T23:18:46.325Z,86.80
2018-11-26T23:21:15.717Z,86.40
2018-11-26T23:23:45.084Z,85.80
2018-11-26T23:26:14.221Z,85.10
2018-11-26T23:28:43.324Z,84.80
2018-11-26T23:31:12.618Z,84.70
2018-11-26T23:33:41.993Z,84.80
2018-11-26T23:36:11.113Z,83.90
2018-11-26T23:38:40.252Z,84.10
2018-11-26T23:41:09.387Z,84.00
2018-11-26T23:43:38.634Z,84.10
2018-11-26T23:46:07.831Z,84.20
2018-11-26T23:48:37.079Z,84.50
2018-11-26T23:51:07.504Z,84.90
2018-11-26T23:53:38.067Z,84.80
2018-11-26T23:56:09.578Z,84.40
2018-11-26T23:58:38.863Z,84.40
